createdAt,value
2019-04-23T00:00:26.369Z,14.90
2019-04-23T00:05:41.735Z,14.90
2019-04-23T00:08:07.388Z,14.80
2019-04-23T00:10:30.286Z,14.70
2019-04-23T00:13:01.110Z,14.70
2019-04-23T00:16:00.456Z,14.60
2019-04-23T00:18:22.270Z,14.60
2019-04-23T00:20:57.214Z,14.50
2019-04-23T00:23:26.787Z,14.40
2019-04-23T00:26:19.667Z,14.40
2019-04-23T00:28:35.365Z,14.40
2019-04-23T00:33:29.678Z,14.50
2019-04-23T00:35:55.072Z,14.50
2019-04-23T00:38:33.658Z,14.50
2019-04-23T00:41:01.674Z,14.50
2019-04-23T00:43:27.258Z,14.30
2019-04-23T00:45:55.016Z,14.30
2019-04-23T00:51:09.240Z,14.10
2019-04-23T00:53:30.003Z,14.00
2019-04-23T00:56:20.650Z,14.00
2019-04-23T00:58:33.716Z,14.00
2019-04-23T01:00:57.878Z,13.90
2019-04-23T01:03:25.216Z,13.90
2019-04-23T01:05:58.868Z,13.80
2019-04-23T01:08:29.677Z,13.80
2019-04-23T01:11:20.632Z,13.70
2019-04-23T01:18:49.082Z,13.60
2019-04-23T01:20:54.616Z,13.50
2019-04-23T01:23:36.452Z,13.50
2019-04-23T01:26:16.413Z,13.60
2019-04-23T01:28:55.895Z,13.50
2019-04-23T01:31:28.565Z,13.40
2019-04-23T01:39:01.786Z,13.20
2019-04-23T01:41:30.400Z,13.20
2019-04-23T01:43:50.315Z,13.20
2019-04-23T01:46:28.705Z,13.10
2019-04-23T01:49:01.632Z,13.10
2019-04-23T01:51:27.804Z,13.10
2019-04-23T01:53:58.762Z,13.10
2019-04-23T01:58:59.231Z,13.10
2019-04-23T02:01:47.504Z,13.10
2019-04-23T02:04:03.638Z,12.90
2019-04-23T02:06:28.161Z,12.80
2019-04-23T02:09:00.584Z,12.80
2019-04-23T02:11:47.189Z,12.90
2019-04-23T02:14:03.219Z,12.90
2019-04-23T02:16:30.131Z,12.90
2019-04-23T02:19:03.401Z,12.90
2019-04-23T02:21:36.603Z,12.80
2019-04-23T02:24:12.086Z,12.70
2019-04-23T02:26:43.900Z,12.70
2019-04-23T02:29:28.718Z,12.70
2019-04-23T02:31:57.691Z,12.70
2019-04-23T02:34:31.016Z,12.70
2019-04-23T02:39:22.499Z,12.60
2019-04-23T02:44:31.945Z,12.60
2019-04-23T02:47:00.098Z,12.60
2019-04-23T02:49:27.159Z,12.60
2019-04-23T02:51:59.399Z,12.60
2019-04-23T02:54:37.455Z,12.60
2019-04-23T02:56:50.995Z,12.60
2019-04-23T02:59:28.527Z,12.60
2019-04-23T03:02:07.532Z,12.60
2019-04-23T03:04:33.811Z,12.40
2019-04-23T03:07:16.112Z,12.40
2019-04-23T03:09:36.413Z,12.40
2019-04-23T03:14:25.036Z,12.30
2019-04-23T03:22:01.688Z,12.20
2019-04-23T03:24:47.737Z,12.20
2019-04-23T03:27:19.321Z,12.20
2019-04-23T03:29:40.431Z,12.20
2019-04-23T03:33:12.569Z,12.10
2019-04-23T03:37:19.732Z,12.10
2019-04-23T03:47:13.898Z,12.10
2019-04-23T03:54:46.517Z,12.00
2019-04-23T03:59:47.100Z,11.90
2019-04-23T04:04:39.051Z,11.90
2019-04-23T04:07:22.641Z,12.00
2019-04-23T04:09:47.746Z,11.90
2019-04-23T04:14:44.807Z,11.90
2019-04-23T04:25:00.822Z,11.90
2019-04-23T04:27:41.497Z,11.90
2019-04-23T04:30:01.040Z,11.90
2019-04-23T04:32:11.868Z,11.90
2019-04-23T04:37:37.837Z,11.90
2019-04-23T04:44:50.053Z,11.90
2019-04-23T04:47:25.848Z,12.00
2019-04-23T04:50:02.407Z,12.00
2019-04-23T04:52:41.242Z,12.00
2019-04-23T04:54:37.606Z,12.00
2019-04-23T05:00:05.704Z,12.00
2019-04-23T05:04:57.828Z,12.10
2019-04-23T05:07:34.082Z,12.10
2019-04-23T05:15:02.731Z,12.20
2019-04-23T05:17:24.418Z,12.20
2019-04-23T05:19:51.189Z,12.30
2019-04-23T05:22:44.229Z,12.30
2019-04-23T05:24:48.343Z,12.30
2019-04-23T05:27:17.577Z,12.40
2019-04-23T05:29:58.847Z,12.40
2019-04-23T05:32:19.404Z,12.40
2019-04-23T05:34:53.393Z,12.40
2019-04-23T05:37:28.276Z,12.50
2019-04-23T05:39:45.566Z,12.50
2019-04-23T05:42:20.105Z,12.60
2019-04-23T05:44:52.807Z,12.60
2019-04-23T05:47:23.232Z,12.60
2019-04-23T05:49:54.663Z,12.70
2019-04-23T05:52:24.472Z,12.80
2019-04-23T05:57:14.281Z,12.80
2019-04-23T05:59:47.807Z,12.90
2019-04-23T06:02:17.051Z,13.00
2019-04-23T06:04:49.641Z,13.00
2019-04-23T06:07:28.986Z,13.00
2019-04-23T06:09:52.066Z,13.10
2019-04-23T06:12:21.587Z,13.10
2019-04-23T06:14:55.529Z,13.20
2019-04-23T06:17:21.529Z,13.20
2019-04-23T06:19:58.602Z,13.30
2019-04-23T06:22:28.984Z,13.30
2019-04-23T06:25:01.364Z,13.30
2019-04-23T06:27:28.962Z,13.30
2019-04-23T06:30:15.059Z,13.30
2019-04-23T06:32:25.536Z,13.40
2019-04-23T06:34:53.138Z,13.30
2019-04-23T06:37:38.529Z,13.30
2019-04-23T06:42:23.458Z,13.50
2019-04-23T06:44:56.135Z,13.60
2019-04-23T06:47:24.811Z,13.60
2019-04-23T06:49:56.011Z,13.60
2019-04-23T06:52:27.481Z,13.70
2019-04-23T06:57:41.146Z,13.80
2019-04-23T07:00:02.417Z,13.90
2019-04-23T07:09:57.860Z,14.20
2019-04-23T07:12:38.817Z,14.20
2019-04-23T07:15:13.309Z,14.40
2019-04-23T07:17:26.656Z,14.40
2019-04-23T07:20:04.250Z,14.50
2019-04-23T07:22:32.275Z,14.70
2019-04-23T07:25:00.318Z,14.80
2019-04-23T07:27:39.373Z,14.90
2019-04-23T07:32:30.608Z,15.00
2019-04-23T07:37:57.126Z,15.00
2019-04-23T07:40:21.625Z,15.10
2019-04-23T07:43:03.454Z,15.10
2019-04-23T07:48:12.422Z,15.30
2019-04-23T07:53:13.293Z,15.50
2019-04-23T07:58:23.826Z,15.60
2019-04-23T08:00:45.157Z,15.60
2019-04-23T08:05:39.811Z,15.90
2019-04-23T08:08:14.721Z,15.90
2019-04-23T08:11:03.051Z,16.00
2019-04-23T08:13:21.447Z,16.10
2019-04-23T08:15:51.961Z,16.20
2019-04-23T08:18:18.040Z,16.30
2019-04-23T08:20:49.644Z,16.20
2019-04-23T08:23:16.504Z,16.30
2019-04-23T08:26:02.460Z,16.30
2019-04-23T08:28:46.156Z,16.40
2019-04-23T08:30:53.723Z,16.50
2019-04-23T08:33:19.405Z,16.60
2019-04-23T08:35:59.033Z,16.60
2019-04-23T08:38:26.665Z,16.70
2019-04-23T08:41:02.549Z,16.80
2019-04-23T08:45:52.505Z,17.00
2019-04-23T08:48:27.491Z,17.10
2019-04-23T08:51:03.527Z,17.10
2019-04-23T08:53:37.701Z,17.20
2019-04-23T08:55:53.935Z,17.30
2019-04-23T09:00:58.606Z,17.50
2019-04-23T09:08:45.824Z,17.70
2019-04-23T09:11:04.865Z,17.80
2019-04-23T09:16:13.653Z,17.90
2019-04-23T09:21:05.434Z,17.90
2019-04-23T09:28:41.944Z,18.20
2019-04-23T09:31:18.877Z,18.30
2019-04-23T09:36:27.644Z,18.50
2019-04-23T09:39:00.182Z,18.60
2019-04-23T09:41:51.521Z,18.70
2019-04-23T09:44:51.050Z,18.80
2019-04-23T09:49:20.128Z,19.00
2019-04-23T09:51:55.547Z,19.20
2019-04-23T09:54:18.579Z,19.30
2019-04-23T09:56:49.533Z,19.40
2019-04-23T09:59:23.495Z,19.40
2019-04-23T10:01:41.331Z,19.40
2019-04-23T10:04:06.049Z,19.50
2019-04-23T10:06:26.618Z,19.50
2019-04-23T10:08:56.219Z,19.60
2019-04-23T10:11:24.222Z,19.70
2019-04-23T10:13:53.390Z,19.80
2019-04-23T10:16:25.818Z,20.00
2019-04-23T10:18:55.168Z,20.00
2019-04-23T10:21:23.890Z,20.00
2019-04-23T10:23:55.076Z,20.10
2019-04-23T10:26:24.129Z,20.20
2019-04-23T10:28:55.974Z,20.30
2019-04-23T10:31:25.260Z,20.50
2019-04-23T10:33:53.768Z,20.60
2019-04-23T10:36:25.904Z,20.60
2019-04-23T10:39:00.542Z,20.70
2019-04-23T10:41:23.336Z,20.80
2019-04-23T10:43:58.577Z,20.80
2019-04-23T10:47:02.698Z,20.90
2019-04-23T10:54:43.304Z,21.10
2019-04-23T11:02:36.326Z,21.30
2019-04-23T11:04:54.118Z,21.50
2019-04-23T11:07:28.387Z,21.70
2019-04-23T11:09:59.576Z,21.80
2019-04-23T11:12:45.014Z,22.00
2019-04-23T11:15:24.117Z,22.10
2019-04-23T11:20:27.422Z,22.40
2019-04-23T11:22:48.263Z,22.90
2019-04-23T11:25:22.459Z,23.40
2019-04-23T11:27:42.923Z,23.60
2019-04-23T11:40:19.979Z,26.20
2019-04-23T11:42:50.211Z,26.60
2019-04-23T11:45:30.085Z,27.10
2019-04-23T11:51:10.434Z,28.20
2019-04-23T11:55:33.093Z,29.00
2019-04-23T12:00:31.491Z,29.30
2019-04-23T12:03:14.161Z,29.10
2019-04-23T12:08:39.944Z,30.20
2019-04-23T12:11:28.693Z,30.70
2019-04-23T12:13:41.363Z,31.40
2019-04-23T12:16:00.923Z,31.20
2019-04-23T12:18:43.308Z,31.90
2019-04-23T12:20:56.811Z,31.20
2019-04-23T12:23:43.533Z,31.10
2019-04-23T12:26:11.710Z,31.40
2019-04-23T12:28:38.041Z,31.10
2019-04-23T12:31:10.036Z,31.00
2019-04-23T12:33:47.231Z,31.80
2019-04-23T12:36:04.689Z,32.10
2019-04-23T12:38:30.128Z,32.30
2019-04-23T12:41:06.127Z,32.60
2019-04-23T12:43:41.849Z,32.40
2019-04-23T12:46:05.975Z,32.60
2019-04-23T12:48:50.836Z,33.10
2019-04-23T12:51:12.672Z,33.10
2019-04-23T12:53:37.888Z,32.80
2019-04-23T12:56:08.888Z,32.40
2019-04-23T12:58:29.412Z,32.40
2019-04-23T13:01:04.832Z,32.00
2019-04-23T13:03:39.262Z,31.80
2019-04-23T13:05:59.277Z,31.60
2019-04-23T13:11:07.983Z,31.30
2019-04-23T13:16:17.898Z,31.30
2019-04-23T13:21:30.134Z,32.40
2019-04-23T13:23:42.293Z,32.20
2019-04-23T13:26:06.119Z,32.70
2019-04-23T13:29:04.963Z,32.30
2019-04-23T13:31:12.589Z,32.20
2019-04-23T13:36:29.981Z,32.30
2019-04-23T13:38:58.444Z,32.20
2019-04-23T13:43:45.759Z,32.30
2019-04-23T13:46:33.115Z,32.20
2019-04-23T13:48:42.300Z,32.70
2019-04-23T13:51:21.212Z,33.40
2019-04-23T13:53:59.256Z,33.40
2019-04-23T13:56:24.520Z,32.60
2019-04-23T13:58:51.832Z,32.60
2019-04-23T14:04:07.811Z,32.90
2019-04-23T14:08:55.206Z,32.80
2019-04-23T14:11:23.610Z,33.00
2019-04-23T14:14:08.687Z,33.00
2019-04-23T14:21:28.662Z,32.70
2019-04-23T14:26:32.677Z,33.00
2019-04-23T14:28:56.905Z,33.20
2019-04-23T14:31:16.895Z,33.30
2019-04-23T14:34:00.104Z,33.30
2019-04-23T14:41:24.923Z,33.40
2019-04-23T14:48:56.735Z,34.00
2019-04-23T14:51:32.069Z,33.70
2019-04-23T14:53:52.168Z,33.60
2019-04-23T14:56:31.538Z,33.40
2019-04-23T14:59:02.815Z,33.30
2019-04-23T15:09:10.263Z,32.60
2019-04-23T15:11:38.805Z,33.10
2019-04-23T15:14:03.548Z,33.30
2019-04-23T15:16:31.747Z,33.30
2019-04-23T15:19:22.079Z,34.00
2019-04-23T15:24:17.556Z,34.60
2019-04-23T15:27:45.583Z,33.90
2019-04-23T15:28:45.517Z,34.00
2019-04-23T15:31:41.238Z,33.90
2019-04-23T15:34:20.919Z,33.60
2019-04-23T15:37:00.838Z,33.60
2019-04-23T15:44:10.742Z,33.20
2019-04-23T15:49:14.682Z,33.80
2019-04-23T15:51:48.033Z,34.00
2019-04-23T15:54:15.135Z,34.20
2019-04-23T15:56:41.476Z,34.00
2019-04-23T16:03:43.976Z,33.90
2019-04-23T16:06:15.703Z,33.90
2019-04-23T16:11:45.371Z,34.40
2019-04-23T16:16:45.317Z,33.70
2019-04-23T16:24:20.490Z,33.40
2019-04-23T16:26:47.415Z,33.20
2019-04-23T16:34:19.197Z,32.30
2019-04-23T16:36:43.802Z,32.00
2019-04-23T16:41:54.204Z,31.00
2019-04-23T16:44:24.183Z,30.10
2019-04-23T16:46:51.928Z,29.70
2019-04-23T16:49:19.184Z,29.40
2019-04-23T16:54:28.313Z,28.40
2019-04-23T16:59:18.470Z,27.80
2019-04-23T17:01:52.336Z,27.90
2019-04-23T17:04:24.321Z,27.90
2019-04-23T17:06:53.411Z,28.00
2019-04-23T17:09:19.727Z,27.80
2019-04-23T17:14:21.682Z,27.80
2019-04-23T17:16:42.140Z,27.80
2019-04-23T17:19:24.134Z,27.90
2019-04-23T17:21:59.731Z,28.00
2019-04-23T17:24:25.854Z,28.10
2019-04-23T17:26:53.957Z,27.90
2019-04-23T17:29:21.357Z,27.80
2019-04-23T17:31:45.211Z,27.50
2019-04-23T17:34:30.473Z,27.60
2019-04-23T17:39:25.356Z,27.20
2019-04-23T17:42:18.173Z,26.90
2019-04-23T17:44:54.608Z,26.70
2019-04-23T17:47:07.054Z,26.40
2019-04-23T17:49:35.137Z,26.00
2019-04-23T17:52:16.537Z,25.90
2019-04-23T17:57:10.810Z,25.40
2019-04-23T18:00:08.457Z,25.00
2019-04-23T18:04:57.168Z,24.60
2019-04-23T18:07:33.993Z,24.40
2019-04-23T18:09:58.510Z,24.50
2019-04-23T18:12:31.166Z,24.30
2019-04-23T18:14:52.226Z,24.20
2019-04-23T18:17:28.802Z,23.90
2019-04-23T18:19:58.376Z,23.80
2019-04-23T18:22:29.542Z,23.70
2019-04-23T18:27:48.408Z,23.50
2019-04-23T18:30:20.411Z,23.30
2019-04-23T18:33:44.654Z,23.10
2019-04-23T18:35:29.922Z,23.00
2019-04-23T18:38:14.616Z,22.80
2019-04-23T18:40:58.207Z,22.70
2019-04-23T18:43:13.816Z,22.50
2019-04-23T18:48:27.476Z,22.30
2019-04-23T18:50:53.472Z,22.30
2019-04-23T18:53:26.842Z,22.20
2019-04-23T18:58:09.585Z,22.00
2019-04-23T19:00:55.075Z,22.00
2019-04-23T19:03:21.021Z,22.10
2019-04-23T19:06:01.133Z,21.90
2019-04-23T19:08:51.901Z,21.90
2019-04-23T19:11:13.707Z,21.70
2019-04-23T19:13:46.011Z,21.70
2019-04-23T19:16:20.315Z,21.80
2019-04-23T19:18:49.258Z,21.60
2019-04-23T19:23:51.078Z,21.50
2019-04-23T19:26:41.745Z,21.40
2019-04-23T19:31:27.599Z,21.20
2019-04-23T19:36:49.284Z,21.20
2019-04-23T19:39:17.596Z,21.20
2019-04-23T19:41:59.508Z,21.20
2019-04-23T19:44:08.553Z,21.10
2019-04-23T19:49:09.932Z,21.00
2019-04-23T19:51:44.606Z,20.90
2019-04-23T19:54:17.177Z,20.80
2019-04-23T19:56:51.254Z,20.90
2019-04-23T19:59:18.501Z,20.80
2019-04-23T20:01:53.350Z,20.70
2019-04-23T20:04:07.952Z,20.70
2019-04-23T20:09:30.897Z,20.60
2019-04-23T20:11:53.057Z,20.60
2019-04-23T20:14:12.162Z,20.50
2019-04-23T20:17:18.855Z,20.50
2019-04-23T20:19:18.527Z,20.40
2019-04-23T20:21:54.908Z,20.40
2019-04-23T20:26:50.390Z,20.40
2019-04-23T20:29:54.629Z,20.30
2019-04-23T20:37:13.670Z,20.00
2019-04-23T20:39:59.952Z,19.90
2019-04-23T20:42:20.348Z,19.90
2019-04-23T20:44:53.512Z,19.90
2019-04-23T20:52:10.371Z,19.80
2019-04-23T20:54:58.443Z,19.90
2019-04-23T21:05:21.660Z,19.60
2019-04-23T21:07:59.327Z,19.70
2019-04-23T21:13:09.301Z,19.60
2019-04-23T21:15:35.327Z,19.60
2019-04-23T21:18:10.333Z,19.50
2019-04-23T21:20:35.436Z,19.60
2019-04-23T21:23:06.732Z,19.40
2019-04-23T21:25:31.823Z,19.40
2019-04-23T21:33:24.552Z,19.30
2019-04-23T21:39:08.684Z,19.20
2019-04-23T21:41:44.798Z,19.20
2019-04-23T21:46:40.253Z,18.90
2019-04-23T21:51:46.350Z,19.00
2019-04-23T21:54:13.230Z,19.00
2019-04-23T21:56:48.613Z,18.90
2019-04-23T22:04:17.351Z,18.90
2019-04-23T22:06:43.290Z,18.80
2019-04-23T22:11:57.018Z,18.80
2019-04-23T22:14:10.253Z,18.80
2019-04-23T22:21:47.164Z,18.70
2019-04-23T22:24:19.769Z,18.70
2019-04-23T22:26:37.850Z,18.60
2019-04-23T22:29:26.134Z,18.70
2019-04-23T22:31:47.160Z,18.70
2019-04-23T22:34:17.079Z,18.70
2019-04-23T22:36:51.763Z,18.70
2019-04-23T22:39:16.091Z,18.70
2019-04-23T22:41:54.648Z,18.70
2019-04-23T22:44:12.110Z,18.80
2019-04-23T22:46:53.652Z,18.70
2019-04-23T22:49:23.134Z,18.70
2019-04-23T23:01:53.408Z,18.60
2019-04-23T23:04:40.940Z,18.50
2019-04-23T23:11:54.295Z,18.50
2019-04-23T23:16:54.838Z,18.40
2019-04-23T23:19:28.451Z,18.40
2019-04-23T23:24:21.548Z,18.40
2019-04-23T23:29:19.605Z,18.40
2019-04-23T23:32:02.215Z,18.40
2019-04-23T23:34:27.835Z,18.40
2019-04-23T23:37:05.435Z,18.30
2019-04-23T23:39:28.778Z,18.30
2019-04-23T23:44:33.530Z,18.30
2019-04-23T23:47:03.079Z,18.30
2019-04-23T23:49:28.424Z,18.30
2019-04-23T23:52:03.278Z,18.40
2019-04-23T23:54:30.886Z,18.30
2019-04-23T23:59:24.681Z,18.40
